Time;durP1;ratioP1;P1;durP2;ratioP2;P2;SDS_P1;SDS_P2;PMS_P1;PMS_P2;Temp;Humidity;BMP_temperature;BMP_pressure;BME280_temperature;BME280_humidity;BME280_pressure;Samples;Min_cycle;Max_cycle;Signal;HPM_P1;HPM_P2
2022/01/12 00:00:59;;;;;;;9.15;8.18;;;0.90;99.90;;;;;;5060503;28;20027;-76
2022/01/12 00:03:25;;;;;;;8.77;7.70;;;0.80;99.90;;;;;;5066574;28;20031;-76
2022/01/12 00:05:51;;;;;;;9.30;8.40;;;0.80;99.90;;;;;;5063850;28;20116;-77
2022/01/12 00:08:17;;;;;;;8.65;7.85;;;0.80;99.90;;;;;;5066393;28;20028;-76
2022/01/12 00:10:43;;;;;;;9.50;8.60;;;0.80;99.90;;;;;;5064091;28;20025;-76
2022/01/12 00:13:09;;;;;;;8.88;7.97;;;0.80;99.90;;;;;;5069096;28;20029;-77
2022/01/12 00:15:35;;;;;;;8.70;7.80;;;0.80;99.90;;;;;;5062716;28;20028;-77
2022/01/12 00:18:00;;;;;;;9.02;7.97;;;0.80;99.90;;;;;;5068976;28;20095;-77
2022/01/12 00:20:26;;;;;;;8.40;7.57;;;0.60;99.90;;;;;;5062843;28;20491;-76
2022/01/12 00:22:53;;;;;;;8.07;7.28;;;0.50;99.90;;;;;;5064923;28;20078;-76
2022/01/12 00:33:16;;;;;;;9.57;8.57;;;0.60;99.90;;;;;;5064045;28;20095;-76
2022/01/12 00:35:53;;;;;;;10.32;8.48;;;0.50;99.90;;;;;;5066951;28;20489;-78
2022/01/12 00:38:21;;;;;;;8.40;7.60;;;0.50;99.90;;;;;;5070627;28;20497;-78
2022/01/12 00:40:52;;;;;;;9.43;8.48;;;0.40;99.90;;;;;;5065493;28;20491;-78
2022/01/12 00:43:19;;;;;;;8.77;7.97;;;0.30;99.90;;;;;;5062935;28;20048;-77
2022/01/12 00:45:46;;;;;;;10.32;9.23;;;0.30;99.90;;;;;;5065364;28;20052;-78
2022/01/12 00:48:16;;;;;;;10.48;9.43;;;0.30;99.90;;;;;;5067364;28;20012;-78
2022/01/12 00:50:42;;;;;;;11.30;10.18;;;0.30;99.90;;;;;;5062724;28;20042;-77
2022/01/12 00:53:08;;;;;;;11.88;10.77;;;0.30;99.90;;;;;;5053773;28;20029;-78
2022/01/12 00:55:35;;;;;;;11.80;10.70;;;0.30;99.90;;;;;;5063186;28;20040;-77
2022/01/12 00:58:00;;;;;;;13.07;11.57;;;0.30;99.90;;;;;;5067492;28;20017;-78
2022/01/12 01:00:27;;;;;;;11.35;10.25;;;0.20;99.90;;;;;;5068568;28;20059;-77
2022/01/12 01:02:54;;;;;;;9.85;8.85;;;0.00;99.90;;;;;;5065029;28;20032;-77
2022/01/12 01:05:24;;;;;;;10.13;9.13;;;0.00;99.90;;;;;;5068080;28;20049;-77
2022/01/12 01:07:51;;;;;;;10.25;9.25;;;-0.10;99.90;;;;;;5058207;28;20017;-77
2022/01/12 01:10:29;;;;;;;10.75;9.68;;;-0.10;99.90;;;;;;5067905;28;20024;-77
2022/01/12 01:12:54;;;;;;;11.38;10.18;;;-0.20;99.90;;;;;;5066303;28;20055;-77
2022/01/12 01:15:28;;;;;;;11.57;10.48;;;-0.30;99.90;;;;;;5066275;28;20017;-78
2022/01/12 01:25:29;;;;;;;11.48;10.38;;;-0.30;99.90;;;;;;5061979;28;20069;-78
2022/01/12 01:26:23;;;;;;;11.25;10.05;;;-0.60;99.90;;;;;;5067023;28;20032;-78
2022/01/12 01:28:48;;;;;;;11.73;10.55;;;-0.60;99.90;;;;;;5059405;28;20025;-77
2022/01/12 01:31:14;;;;;;;11.27;9.88;;;-0.60;99.90;;;;;;5068972;28;20024;-78
2022/01/12 01:33:40;;;;;;;11.57;10.48;;;-0.60;99.90;;;;;;5066157;28;20090;-78
2022/01/12 01:36:05;;;;;;;11.93;10.73;;;-0.70;99.90;;;;;;5066630;28;20052;-78
2022/01/12 01:38:31;;;;;;;11.10;10.10;;;-0.70;99.90;;;;;;5072270;28;20070;-77
2022/01/12 01:40:57;;;;;;;11.98;10.68;;;-0.80;99.90;;;;;;5061799;28;20021;-77
2022/01/12 01:43:39;;;;;;;12.55;11.25;;;-0.70;99.90;;;;;;5061036;28;20031;-77
2022/01/12 01:54:18;;;;;;;13.90;12.50;;;-0.90;99.90;;;;;;5057616;28;20032;-77
2022/01/12 01:56:43;;;;;;;14.05;12.63;;;-0.90;99.90;;;;;;5067662;28;20470;-76
2022/01/12 01:59:09;;;;;;;16.83;15.07;;;-0.90;99.90;;;;;;5060288;28;20074;-76
2022/01/12 02:01:34;;;;;;;15.85;14.23;;;-0.80;99.90;;;;;;5066605;28;20070;-76
2022/01/12 02:04:02;;;;;;;15.55;13.95;;;-0.80;99.90;;;;;;5062660;28;20017;-76
2022/01/12 02:06:29;;;;;;;15.57;14.07;;;-0.80;99.90;;;;;;5064195;28;20069;-76
2022/01/12 02:08:55;;;;;;;15.73;14.18;;;-0.80;99.90;;;;;;5060052;28;20027;-75
2022/01/12 02:11:26;;;;;;;15.25;13.75;;;-0.90;99.90;;;;;;5051166;28;20025;-75
2022/01/12 02:13:51;;;;;;;15.93;14.27;;;-1.00;99.90;;;;;;5039024;28;20031;-75
2022/01/12 02:16:19;;;;;;;16.00;14.32;;;-0.90;99.90;;;;;;5039616;28;20021;-76
2022/01/12 02:19:45;;;;;;;15.07;13.48;;;-0.90;99.90;;;;;;5045707;28;20057;-77
2022/01/12 02:40:54;;;;;;;15.45;13.95;;;-0.80;99.90;;;;;;5049830;28;20045;-76
2022/01/12 02:53:38;;;;;;;14.70;13.18;;;-1.00;99.90;;;;;;5039975;28;20561;-76
2022/01/12 02:54:19;;;;;;;13.80;12.40;;;-0.90;99.90;;;;;;5033262;28;20439;-76
2022/01/12 02:56:44;;;;;;;14.88;13.35;;;-0.70;99.90;;;;;;5047080;28;20028;-76
2022/01/12 02:59:10;;;;;;;14.93;13.43;;;-0.60;99.90;;;;;;5034021;28;20021;-76
2022/01/12 03:04:19;;;;;;;16.42;14.82;;;-0.80;99.90;;;;;;5031627;28;20045;-77
2022/01/12 03:06:46;;;;;;;16.67;14.80;;;-1.00;99.90;;;;;;5031642;28;20498;-76
2022/01/12 03:09:12;;;;;;;15.63;14.13;;;-0.90;99.90;;;;;;5031420;28;20028;-77
2022/01/12 03:11:38;;;;;;;16.13;14.55;;;-0.70;99.90;;;;;;5031484;28;20025;-76
2022/01/12 03:14:04;;;;;;;16.92;15.23;;;-0.70;99.90;;;;;;5031103;28;20075;-76
2022/01/12 03:16:31;;;;;;;15.27;13.88;;;-0.60;99.90;;;;;;5031526;28;20033;-76
2022/01/12 03:18:59;;;;;;;17.00;15.30;;;-0.60;99.90;;;;;;5031490;28;20479;-76
2022/01/12 03:21:28;;;;;;;17.08;15.38;;;-0.70;99.90;;;;;;5031440;28;20033;-76
2022/01/12 03:23:54;;;;;;;16.00;14.40;;;-0.60;99.90;;;;;;5030079;28;20078;-76
2022/01/12 03:26:20;;;;;;;16.92;15.23;;;-0.60;99.90;;;;;;5030050;28;20470;-75
2022/01/12 03:28:52;;;;;;;16.90;15.30;;;-0.60;99.90;;;;;;5033604;28;20086;-76
2022/01/12 03:31:21;;;;;;;15.90;14.30;;;-0.60;99.90;;;;;;5048079;28;20036;-76
2022/01/12 03:36:28;;;;;;;16.60;14.93;;;-0.40;99.90;;;;;;5049397;28;20111;-77
2022/01/12 03:38:59;;;;;;;16.77;15.18;;;-0.50;99.90;;;;;;5042458;28;20085;-77
2022/01/12 03:41:27;;;;;;;17.77;16.02;;;-0.50;99.90;;;;;;5046300;28;20392;-77
2022/01/12 03:43:55;;;;;;;17.30;15.63;;;-0.50;99.90;;;;;;5042618;28;20126;-77
2022/01/12 03:46:25;;;;;;;17.02;15.43;;;-0.50;99.90;;;;;;5043463;28;20025;-76
2022/01/12 03:48:50;;;;;;;18.60;16.70;;;-0.40;99.90;;;;;;5039319;28;20386;-77
2022/01/12 03:51:17;;;;;;;17.58;15.93;;;-0.40;99.90;;;;;;5037860;28;20108;-76
2022/01/12 03:53:42;;;;;;;17.80;15.98;;;-0.40;99.90;;;;;;5049840;28;20029;-76
2022/01/12 03:56:08;;;;;;;17.60;15.80;;;-0.40;99.90;;;;;;5047973;28;20074;-75
2022/01/12 03:58:33;;;;;;;17.85;16.05;;;-0.40;99.90;;;;;;5047659;28;20036;-75
2022/01/12 04:00:59;;;;;;;19.13;17.23;;;-0.30;99.90;;;;;;5042527;28;20022;-75
2022/01/12 04:03:25;;;;;;;21.02;18.73;;;-0.40;99.90;;;;;;5041908;28;20040;-76
2022/01/12 04:08:35;;;;;;;22.27;19.65;;;-0.50;99.90;;;;;;5036016;28;20079;-75
2022/01/12 04:11:00;;;;;;;24.17;21.23;;;-0.50;99.90;;;;;;5031135;28;20053;-76
2022/01/12 04:13:31;;;;;;;20.65;18.50;;;-0.70;99.90;;;;;;5031631;28;20037;-77
2022/01/12 04:16:03;;;;;;;18.60;16.70;;;-0.70;99.90;;;;;;5030796;28;20026;-77
2022/01/12 04:18:29;;;;;;;21.13;17.92;;;-0.70;99.90;;;;;;5030713;28;20026;-77
2022/01/12 04:20:57;;;;;;;20.40;18.02;;;-0.60;99.90;;;;;;5031765;28;20112;-77
2022/01/12 04:23:23;;;;;;;20.00;17.90;;;-0.50;99.90;;;;;;5034684;28;20463;-77
2022/01/12 04:25:51;;;;;;;20.02;18.02;;;-0.50;99.90;;;;;;5034402;28;20022;-76
2022/01/12 04:28:18;;;;;;;19.27;17.27;;;-0.50;99.90;;;;;;5033179;28;20058;-76
2022/01/12 04:30:46;;;;;;;18.73;16.80;;;-0.50;99.90;;;;;;5033216;28;20479;-77
2022/01/12 04:33:11;;;;;;;19.10;17.00;;;-0.50;99.90;;;;;;5041980;28;20029;-76
2022/01/12 04:35:46;;;;;;;18.98;17.10;;;-0.50;99.90;;;;;;5038901;28;20112;-76
2022/01/12 04:38:12;;;;;;;18.08;16.23;;;-0.50;99.90;;;;;;5034340;28;20510;-76
2022/01/12 04:40:38;;;;;;;17.83;15.63;;;-0.60;99.90;;;;;;5036605;28;20025;-77
2022/01/12 04:43:03;;;;;;;17.50;15.70;;;-0.70;99.90;;;;;;5034672;28;20029;-77
2022/01/12 04:50:29;;;;;;;17.63;15.88;;;-0.60;99.90;;;;;;5046433;28;20364;-76
2022/01/12 04:52:55;;;;;;;16.80;15.18;;;-0.60;99.90;;;;;;5034052;28;20491;-76
2022/01/12 04:55:20;;;;;;;17.50;15.70;;;-0.60;99.90;;;;;;5041552;28;20036;-76
2022/01/12 04:57:46;;;;;;;17.83;16.02;;;-0.60;99.90;;;;;;5047406;28;20029;-76
2022/01/12 05:00:16;;;;;;;17.98;16.20;;;-0.50;99.90;;;;;;5047110;28;20136;-76
2022/01/12 05:13:33;;;;;;;19.10;17.10;;;-0.30;99.90;;;;;;5040348;28;20159;-77
2022/01/12 05:16:00;;;;;;;18.67;16.83;;;-0.30;99.90;;;;;;5044777;28;20490;-77
2022/01/12 05:18:27;;;;;;;17.92;16.05;;;-0.30;99.90;;;;;;5047533;28;20083;-77
2022/01/12 05:20:52;;;;;;;17.42;15.73;;;-0.30;99.90;;;;;;5033883;28;20037;-77
2022/01/12 05:23:18;;;;;;;16.95;15.18;;;-0.30;99.90;;;;;;5047332;28;20025;-78
2022/01/12 05:25:46;;;;;;;18.58;16.67;;;-0.30;99.90;;;;;;5044312;28;20025;-78
2022/01/12 05:28:16;;;;;;;18.30;16.15;;;-0.40;99.90;;;;;;5043101;28;20029;-77
2022/01/12 05:30:41;;;;;;;17.80;16.05;;;-0.60;99.90;;;;;;5045012;28;20400;-77
2022/01/12 05:33:07;;;;;;;18.70;16.83;;;-0.70;99.90;;;;;;5047524;28;20022;-77
2022/01/12 05:35:34;;;;;;;20.55;18.35;;;-0.50;99.90;;;;;;5044664;28;20029;-77
2022/01/12 05:38:02;;;;;;;20.50;18.52;;;-0.50;99.90;;;;;;5041593;28;20025;-77
2022/01/12 05:40:28;;;;;;;19.52;17.55;;;-0.50;99.90;;;;;;5042966;28;20028;-77
2022/01/12 05:42:55;;;;;;;18.23;16.42;;;-0.50;99.90;;;;;;5046533;28;20021;-77
2022/01/12 05:45:22;;;;;;;17.60;15.80;;;-0.50;99.90;;;;;;5034373;28;20179;-77
2022/01/12 05:50:14;;;;;;;18.00;16.20;;;-0.50;99.90;;;;;;5044707;28;20032;-75
2022/01/12 05:52:40;;;;;;;17.25;15.52;;;-0.70;99.90;;;;;;5034321;28;20026;-76
2022/01/12 05:55:07;;;;;;;18.27;16.27;;;-0.70;99.90;;;;;;5044132;28;20036;-77
2022/01/12 05:57:34;;;;;;;17.65;15.85;;;-0.60;99.90;;;;;;5039442;28;20021;-76
2022/01/12 06:00:00;;;;;;;16.48;14.77;;;-0.50;99.90;;;;;;5051623;28;20028;-77
2022/01/12 06:02:25;;;;;;;15.07;13.48;;;-0.40;99.90;;;;;;5040536;28;20021;-77
2022/01/12 06:04:51;;;;;;;16.40;14.77;;;-0.40;99.90;;;;;;5041573;28;20033;-76
2022/01/12 06:07:17;;;;;;;16.33;14.65;;;-0.50;99.90;;;;;;5044906;28;20041;-77
2022/01/12 06:09:43;;;;;;;16.33;14.63;;;-0.50;99.90;;;;;;5031467;28;20055;-77
2022/01/12 06:12:09;;;;;;;15.43;13.82;;;-0.40;99.90;;;;;;5046402;28;20091;-77
2022/01/12 06:14:35;;;;;;;15.65;14.18;;;-0.40;99.90;;;;;;5042059;28;20044;-76
2022/01/12 06:17:00;;;;;;;16.52;14.93;;;-0.40;99.90;;;;;;5039000;28;20021;-76
2022/01/12 06:19:26;;;;;;;16.92;15.10;;;-0.50;99.90;;;;;;5040759;28;20053;-76
2022/01/12 06:21:51;;;;;;;17.23;15.52;;;-0.50;99.90;;;;;;5045893;28;20025;-76
2022/01/12 06:24:18;;;;;;;17.35;15.65;;;-0.50;99.90;;;;;;5041197;28;20020;-77
2022/01/12 06:26:46;;;;;;;18.27;16.38;;;-0.60;99.90;;;;;;5038924;28;20036;-77
2022/01/12 06:29:41;;;;;;;19.00;17.10;;;-0.70;99.90;;;;;;5041846;28;20021;-76
2022/01/12 06:32:00;;;;;;;18.25;16.45;;;-0.60;99.90;;;;;;5038791;28;20040;-76
2022/01/12 06:34:25;;;;;;;19.15;17.17;;;-0.60;99.90;;;;;;5037337;28;20029;-76
2022/01/12 06:36:51;;;;;;;17.98;16.27;;;-0.50;99.90;;;;;;5052209;28;20028;-76
2022/01/12 06:39:17;;;;;;;16.75;15.15;;;-0.50;99.90;;;;;;5037561;28;20021;-76
2022/01/12 06:41:44;;;;;;;17.83;16.02;;;-0.60;99.90;;;;;;5044023;28;20116;-76
2022/01/12 06:44:15;;;;;;;18.40;16.60;;;-0.50;99.90;;;;;;5033857;28;20421;-78
2022/01/12 06:46:42;;;;;;;17.83;16.13;;;-0.50;99.90;;;;;;5040847;28;20025;-77
2022/01/12 06:49:07;;;;;;;17.60;15.50;;;-0.50;99.90;;;;;;5039250;28;20024;-77
2022/01/12 06:51:33;;;;;;;16.38;14.85;;;-0.70;99.90;;;;;;5043470;28;20037;-77
2022/01/12 06:53:59;;;;;;;16.85;15.25;;;-0.70;99.90;;;;;;5045711;28;20491;-77
2022/01/12 06:56:24;;;;;;;16.77;15.18;;;-0.70;99.90;;;;;;5034132;28;20090;-77
2022/01/12 06:58:50;;;;;;;18.30;16.33;;;-0.70;99.90;;;;;;5046343;28;20364;-77
2022/01/12 07:01:16;;;;;;;17.42;15.80;;;-0.70;99.90;;;;;;5043655;28;20025;-77
2022/01/12 07:03:41;;;;;;;17.75;16.05;;;-0.60;99.90;;;;;;5034474;28;20521;-77
2022/01/12 07:06:07;;;;;;;25.30;22.90;;;-0.60;99.90;;;;;;5042311;28;20025;-77
2022/01/12 07:08:34;;;;;;;23.02;20.92;;;-0.60;99.90;;;;;;5046077;28;20065;-77
2022/01/12 07:11:00;;;;;;;23.10;20.70;;;-0.60;99.90;;;;;;5040824;28;20024;-77
2022/01/12 07:13:26;;;;;;;18.70;16.80;;;-0.50;99.90;;;;;;5039255;28;20060;-78
2022/01/12 07:15:51;;;;;;;18.65;16.75;;;-0.50;99.90;;;;;;5042335;28;20025;-76
2022/01/12 07:18:19;;;;;;;25.65;22.92;;;-0.50;99.90;;;;;;5045294;28;20029;-77
2022/01/12 07:20:44;;;;;;;95.95;74.75;;;-0.40;99.90;;;;;;5038958;28;20045;-77
2022/01/12 07:23:11;;;;;;;63.70;51.70;;;-0.50;99.90;;;;;;5038282;28;20110;-77
2022/01/12 07:25:36;;;;;;;26.77;23.98;;;-0.60;99.90;;;;;;5041958;28;20026;-77
2022/01/12 07:28:02;;;;;;;28.23;23.92;;;-0.50;99.90;;;;;;5044881;28;20025;-76
2022/01/12 07:30:27;;;;;;;30.80;26.35;;;-0.50;99.90;;;;;;5038282;28;20044;-76
2022/01/12 07:32:53;;;;;;;27.50;24.42;;;-0.50;99.90;;;;;;5037914;28;20053;-76
2022/01/12 07:35:19;;;;;;;23.00;20.55;;;-0.50;99.90;;;;;;5041575;28;20033;-76
2022/01/12 07:37:44;;;;;;;20.13;17.80;;;-0.50;99.90;;;;;;5046766;28;20101;-77
2022/01/12 07:40:11;;;;;;;21.52;19.33;;;-0.50;99.90;;;;;;5058218;28;20025;-78
2022/01/12 07:42:36;;;;;;;24.05;21.30;;;-0.50;99.90;;;;;;5058304;28;20107;-76
2022/01/12 07:45:03;;;;;;;20.02;18.02;;;-0.60;99.90;;;;;;5055079;28;20095;-76
2022/01/12 07:47:30;;;;;;;24.40;21.77;;;-0.50;99.90;;;;;;5042034;28;20364;-76
2022/01/12 07:55:07;;;;;;;23.80;21.38;;;-0.50;99.90;;;;;;5022517;22;20057;-76
2022/01/12 07:57:32;;;;;;;17.98;16.23;;;-0.50;99.90;;;;;;5010653;28;20038;-75
2022/01/12 07:59:58;;;;;;;18.52;16.63;;;-0.60;99.90;;;;;;5015307;28;20025;-75
2022/01/12 08:02:24;;;;;;;20.23;18.13;;;-0.60;99.90;;;;;;5015081;28;20037;-75
2022/01/12 08:04:50;;;;;;;21.60;19.30;;;-0.60;99.90;;;;;;5004247;28;20026;-77
2022/01/12 08:07:16;;;;;;;19.55;17.42;;;-0.70;99.90;;;;;;4995802;28;20045;-76
2022/01/12 08:09:43;;;;;;;18.98;17.15;;;-0.70;99.90;;;;;;4995435;28;20480;-76
2022/01/12 08:12:09;;;;;;;17.55;15.82;;;-0.60;99.90;;;;;;4995439;28;20022;-76
2022/01/12 08:14:36;;;;;;;18.15;16.27;;;-0.70;99.90;;;;;;4995196;28;20169;-76
2022/01/12 08:17:02;;;;;;;17.00;15.38;;;-0.80;99.90;;;;;;4994171;28;20480;-76
2022/01/12 08:19:29;;;;;;;18.45;16.65;;;-0.80;99.90;;;;;;4995335;28;20490;-76
2022/01/12 08:21:55;;;;;;;16.40;14.80;;;-0.80;99.90;;;;;;4995107;28;20028;-76
2022/01/12 08:24:21;;;;;;;15.90;14.30;;;-0.70;99.90;;;;;;4995094;28;20076;-76
2022/01/12 08:26:47;;;;;;;14.40;12.93;;;-0.70;99.90;;;;;;4985137;28;20026;-76
2022/01/12 08:29:15;;;;;;;14.70;13.20;;;-0.70;99.90;;;;;;4993837;28;20026;-76
2022/01/12 08:31:41;;;;;;;14.00;12.70;;;-0.70;99.90;;;;;;4994629;28;20088;-76
2022/01/12 08:34:08;;;;;;;13.15;11.85;;;-0.60;99.90;;;;;;4993322;28;20491;-76
2022/01/12 08:36:34;;;;;;;13.63;12.32;;;-0.70;99.90;;;;;;4995039;28;20073;-76
2022/01/12 08:38:59;;;;;;;13.88;12.57;;;-0.80;99.90;;;;;;4995095;28;20026;-76
2022/01/12 08:41:25;;;;;;;12.68;11.48;;;-0.80;99.90;;;;;;5008126;28;20110;-76
2022/01/12 08:43:51;;;;;;;13.13;11.82;;;-0.70;99.90;;;;;;4994744;28;20579;-77
2022/01/12 08:46:16;;;;;;;12.52;11.43;;;-0.70;99.90;;;;;;4995547;28;20039;-75
2022/01/12 08:48:42;;;;;;;12.82;11.60;;;-0.60;99.90;;;;;;5005828;28;20117;-75
2022/01/12 08:51:07;;;;;;;11.85;10.75;;;-0.60;99.90;;;;;;4993408;28;20054;-75
2022/01/12 08:53:34;;;;;;;12.10;10.90;;;-0.60;99.90;;;;;;4984728;28;20038;-75
2022/01/12 08:56:00;;;;;;;11.52;10.43;;;-0.60;99.90;;;;;;4990154;28;20110;-75
2022/01/12 08:58:25;;;;;;;11.50;10.40;;;-0.60;99.90;;;;;;4994394;28;20101;-75
2022/01/12 09:00:51;;;;;;;12.93;11.57;;;-0.40;99.90;;;;;;4994618;28;20026;-75
2022/01/12 09:03:16;;;;;;;11.68;10.48;;;-0.30;99.90;;;;;;4994366;28;20022;-75
2022/01/12 09:05:42;;;;;;;11.57;10.40;;;-0.40;99.90;;;;;;4995738;28;20022;-75
2022/01/12 09:08:07;;;;;;;11.93;10.73;;;-0.40;99.90;;;;;;5005609;28;20037;-75
2022/01/12 09:10:34;;;;;;;11.32;10.23;;;-0.30;99.90;;;;;;4995727;28;20527;-76
2022/01/12 09:13:00;;;;;;;11.57;10.48;;;-0.30;99.90;;;;;;5005414;28;20030;-76
2022/01/12 09:15:26;;;;;;;11.15;10.05;;;-0.20;99.90;;;;;;4996199;28;20038;-76
2022/01/12 09:17:53;;;;;;;11.70;10.60;;;-0.40;99.90;;;;;;5005223;28;20030;-75
2022/01/12 09:20:20;;;;;;;11.88;10.88;;;-0.50;99.90;;;;;;4992945;28;20030;-76
2022/01/12 09:22:45;;;;;;;13.35;12.10;;;-0.40;99.90;;;;;;4992258;28;20531;-76
2022/01/12 09:25:11;;;;;;;13.75;12.25;;;0.00;99.90;;;;;;4990229;28;20079;-76
2022/01/12 09:27:39;;;;;;;12.15;10.77;;;0.10;99.90;;;;;;4993802;28;20125;-76
2022/01/12 09:30:09;;;;;;;11.02;10.02;;;0.10;99.90;;;;;;4992767;28;20033;-77
2022/01/12 09:32:35;;;;;;;11.80;10.60;;;0.10;99.90;;;;;;4993758;28;20029;-76
2022/01/12 09:35:01;;;;;;;12.10;11.00;;;0.20;99.90;;;;;;4993921;28;20427;-76
2022/01/12 09:37:27;;;;;;;12.93;11.73;;;0.30;99.90;;;;;;4993942;28;20022;-76
2022/01/12 09:39:53;;;;;;;12.98;11.68;;;0.50;99.90;;;;;;4994036;28;20018;-76
2022/01/12 09:42:19;;;;;;;11.48;10.30;;;0.60;99.90;;;;;;4993668;28;20026;-76
2022/01/12 09:44:47;;;;;;;11.95;10.73;;;0.30;99.90;;;;;;4996341;28;20048;-77
2022/01/12 09:47:14;;;;;;;10.82;9.73;;;0.20;99.90;;;;;;5001523;28;20026;-76
2022/01/12 09:49:45;;;;;;;11.43;10.32;;;0.10;99.90;;;;;;4998135;28;20088;-76
2022/01/12 09:52:12;;;;;;;11.25;10.05;;;-0.10;99.90;;;;;;5001534;28;20054;-76
2022/01/12 09:54:38;;;;;;;10.38;9.30;;;0.20;99.90;;;;;;4983349;28;20114;-76
2022/01/12 09:57:04;;;;;;;10.45;9.35;;;0.10;99.90;;;;;;5003670;28;20452;-75
2022/01/12 09:59:30;;;;;;;10.40;9.40;;;0.10;99.90;;;;;;4992233;28;20026;-76
2022/01/12 10:01:57;;;;;;;11.35;10.10;;;0.10;99.90;;;;;;5006434;28;20029;-76
2022/01/12 10:04:25;;;;;;;10.13;9.13;;;0.20;99.90;;;;;;4992060;28;20035;-76
2022/01/12 10:07:02;;;;;;;10.80;9.68;;;0.10;99.90;;;;;;5005563;28;20133;-76
2022/01/12 10:09:44;;;;;;;10.30;9.30;;;0.10;99.90;;;;;;4993207;28;20022;-76
2022/01/12 10:12:21;;;;;;;10.73;9.25;;;0.30;99.90;;;;;;4981279;28;20073;-76
2022/01/12 10:14:55;;;;;;;10.85;9.77;;;0.30;99.90;;;;;;4991922;28;20518;-76
2022/01/12 10:17:50;;;;;;;10.25;9.25;;;0.50;99.90;;;;;;4993143;28;20022;-76
2022/01/12 10:20:22;;;;;;;9.75;8.75;;;0.80;99.90;;;;;;4967970;28;20022;-75
2022/01/12 10:22:57;;;;;;;19.15;13.55;;;0.90;99.90;;;;;;4986160;28;20587;-77
2022/01/12 10:25:23;;;;;;;12.15;10.40;;;1.10;99.90;;;;;;4997475;28;20031;-75
2022/01/12 10:27:49;;;;;;;9.13;8.23;;;1.10;99.90;;;;;;4992712;28;20550;-76
2022/01/12 10:30:26;;;;;;;9.27;8.35;;;1.20;99.90;;;;;;4992250;28;20027;-76
2022/01/12 10:33:11;;;;;;;10.43;8.85;;;0.90;99.90;;;;;;4990929;28;20034;-77
2022/01/12 10:35:41;;;;;;;10.40;9.30;;;0.70;99.90;;;;;;4990994;28;20488;-76
2022/01/12 10:38:15;;;;;;;12.07;10.18;;;1.10;99.90;;;;;;4995258;28;20081;-76
2022/01/12 10:40:47;;;;;;;11.40;10.30;;;1.00;99.90;;;;;;4992384;28;20181;-76
2022/01/12 10:43:28;;;;;;;10.32;9.32;;;1.00;99.90;;;;;;4984877;28;20370;-76
2022/01/12 10:45:54;;;;;;;11.73;10.35;;;1.00;99.90;;;;;;4982128;28;20436;-76
2022/01/12 10:48:19;;;;;;;10.90;9.80;;;1.10;99.90;;;;;;4988062;28;20018;-76
2022/01/12 10:50:56;;;;;;;12.27;9.75;;;1.10;99.90;;;;;;4991110;28;20088;-76
2022/01/12 10:53:27;;;;;;;11.07;9.82;;;1.00;99.90;;;;;;5001112;28;20061;-76
2022/01/12 10:56:13;;;;;;;11.13;8.57;;;1.20;99.90;;;;;;5003609;28;20033;-75
2022/01/12 10:58:42;;;;;;;11.13;9.02;;;0.90;99.90;;;;;;5001864;28;20026;-76
2022/01/12 11:01:09;;;;;;;10.60;9.50;;;0.80;99.90;;;;;;4990497;28;20477;-74
2022/01/12 11:03:35;;;;;;;12.68;9.20;;;1.00;99.90;;;;;;4994940;28;20038;-74
2022/01/12 11:06:01;;;;;;;10.73;8.68;;;1.20;99.90;;;;;;4978172;28;20035;-74
2022/01/12 11:08:28;;;;;;;9.93;8.93;;;1.10;99.90;;;;;;5007055;28;20030;-74
2022/01/12 11:10:56;;;;;;;11.35;9.45;;;1.10;99.90;;;;;;5005945;28;20456;-75
2022/01/12 11:13:22;;;;;;;11.18;9.15;;;1.20;99.90;;;;;;4982149;28;20026;-74
2022/01/12 11:15:49;;;;;;;13.52;9.60;;;1.20;99.90;;;;;;4990624;28;20109;-74
2022/01/12 11:18:16;;;;;;;9.20;8.30;;;1.10;99.90;;;;;;4992042;28;20026;-74
2022/01/12 11:20:44;;;;;;;12.15;9.55;;;1.10;99.90;;;;;;4991774;28;20034;-74
2022/01/12 11:23:15;;;;;;;9.90;8.63;;;1.20;99.90;;;;;;4983612;28;20476;-75
2022/01/12 11:25:42;;;;;;;9.55;8.60;;;1.40;99.90;;;;;;4991773;28;20025;-75
2022/01/12 11:28:26;;;;;;;10.63;9.63;;;1.30;99.90;;;;;;4983037;28;20106;-75
2022/01/12 11:30:51;;;;;;;12.52;10.60;;;1.30;99.90;;;;;;4978818;28;20033;-74
2022/01/12 11:33:20;;;;;;;9.68;8.68;;;1.40;99.90;;;;;;4988351;28;20066;-74
2022/01/12 11:35:50;;;;;;;12.27;10.27;;;1.30;99.90;;;;;;4993825;28;20105;-74
2022/01/12 11:38:28;;;;;;;13.30;9.23;;;1.40;99.90;;;;;;4994379;28;20481;-75
2022/01/12 11:41:07;;;;;;;10.65;9.60;;;1.40;99.90;;;;;;4995901;28;20053;-74
2022/01/12 11:43:54;;;;;;;10.80;9.43;;;1.60;99.90;;;;;;4993895;28;20034;-74
2022/01/12 11:46:23;;;;;;;15.07;8.60;;;1.60;99.90;;;;;;4984468;28;20429;-75
2022/01/12 11:48:50;;;;;;;9.18;8.23;;;1.70;99.90;;;;;;4994717;28;20026;-75
2022/01/12 11:51:20;;;;;;;8.75;7.85;;;1.80;99.90;;;;;;4987546;28;20440;-75
2022/01/12 11:53:47;;;;;;;16.38;10.35;;;1.80;99.90;;;;;;4994634;28;20042;-76
2022/01/12 11:56:18;;;;;;;12.20;10.15;;;1.90;99.90;;;;;;4996120;28;20564;-75
2022/01/12 11:58:59;;;;;;;11.90;9.88;;;1.90;99.90;;;;;;4993628;28;20499;-75
2022/01/12 12:01:41;;;;;;;11.45;9.65;;;2.00;99.90;;;;;;4983700;28;20023;-75
2022/01/12 12:04:08;;;;;;;8.80;7.90;;;2.00;99.90;;;;;;4982757;28;20536;-75
2022/01/12 12:06:34;;;;;;;13.18;9.93;;;1.90;99.90;;;;;;4982504;28;20030;-76
2022/01/12 12:09:06;;;;;;;10.05;8.43;;;1.80;99.90;;;;;;4987416;28;20031;-76
2022/01/12 12:11:32;;;;;;;16.15;9.20;;;1.70;99.90;;;;;;4995193;28;20038;-76
2022/01/12 12:14:06;;;;;;;12.52;11.32;;;1.90;99.90;;;;;;4990209;28;20105;-75
2022/01/12 12:16:34;;;;;;;11.82;10.63;;;2.10;99.90;;;;;;4986682;28;20114;-75
2022/01/12 12:19:02;;;;;;;9.95;8.75;;;2.30;99.90;;;;;;4994977;28;20030;-76
2022/01/12 12:21:28;;;;;;;11.43;9.82;;;2.40;99.90;;;;;;4985549;28;20084;-75
2022/01/12 12:23:54;;;;;;;10.55;9.35;;;2.50;99.90;;;;;;4991790;28;20030;-75
2022/01/12 12:26:22;;;;;;;9.98;8.93;;;2.20;99.90;;;;;;4987027;28;20526;-75
2022/01/12 12:28:55;;;;;;;9.70;8.70;;;2.10;99.90;;;;;;4983468;28;20093;-76
2022/01/12 12:31:22;;;;;;;9.77;8.77;;;2.10;99.90;;;;;;4987174;28;20030;-76
2022/01/12 12:34:02;;;;;;;10.95;9.52;;;2.20;99.90;;;;;;4977693;28;20534;-75
2022/01/12 12:36:28;;;;;;;10.52;9.30;;;2.30;99.90;;;;;;4991793;28;20101;-75
2022/01/12 12:39:07;;;;;;;10.73;8.85;;;2.30;99.90;;;;;;4990506;28;20120;-75
2022/01/12 12:41:42;;;;;;;12.80;10.27;;;2.40;99.90;;;;;;4984832;28;20019;-76
2022/01/12 12:44:22;;;;;;;14.83;9.17;;;2.40;99.90;;;;;;4994752;28;20041;-75
2022/01/12 12:47:03;;;;;;;11.18;9.18;;;2.50;99.90;;;;;;4995443;28;20446;-75
2022/01/12 12:49:29;;;;;;;10.27;9.27;;;2.50;99.90;;;;;;4991300;28;20022;-75
2022/01/12 12:52:01;;;;;;;10.82;9.07;;;2.20;99.90;;;;;;4988443;28;20037;-76
2022/01/12 12:54:26;;;;;;;9.80;8.60;;;2.00;99.90;;;;;;4986578;28;20030;-75
2022/01/12 12:56:54;;;;;;;10.05;8.93;;;2.20;99.90;;;;;;4994611;28;20081;-75
2022/01/12 12:59:20;;;;;;;10.68;9.20;;;2.40;99.90;;;;;;4987212;28;20029;-75
2022/01/12 13:01:46;;;;;;;9.65;8.68;;;2.40;99.90;;;;;;4984117;28;20102;-76
2022/01/12 13:04:13;;;;;;;11.90;9.65;;;2.20;99.90;;;;;;4981697;28;20549;-75
2022/01/12 13:06:39;;;;;;;12.18;9.90;;;2.10;99.90;;;;;;4991212;28;20121;-76
2022/01/12 13:09:07;;;;;;;11.77;9.20;;;2.30;99.90;;;;;;4988222;28;20109;-75
2022/01/12 13:11:36;;;;;;;14.75;13.32;;;2.30;99.90;;;;;;4985261;28;20047;-75
2022/01/12 13:14:05;;;;;;;12.55;11.32;;;2.50;99.90;;;;;;4987023;28;20026;-75
2022/01/12 13:16:31;;;;;;;11.23;10.13;;;2.60;99.90;;;;;;4985833;28;20046;-75
2022/01/12 13:19:21;;;;;;;10.55;9.55;;;2.20;99.90;;;;;;4983020;28;20022;-75
2022/01/12 13:21:46;;;;;;;11.38;10.27;;;2.20;99.90;;;;;;4983755;28;20026;-77
2022/01/12 13:24:12;;;;;;;12.30;10.45;;;2.20;99.90;;;;;;4987593;28;20026;-76
2022/01/12 13:26:39;;;;;;;11.40;10.30;;;2.10;99.90;;;;;;4979666;28;20030;-75
2022/01/12 13:29:12;;;;;;;11.25;10.15;;;2.10;99.90;;;;;;4977942;28;20026;-76
2022/01/12 13:31:39;;;;;;;11.98;10.68;;;2.20;99.90;;;;;;4993909;28;20121;-76
2022/01/12 13:34:05;;;;;;;12.95;11.55;;;2.30;99.90;;;;;;4992353;28;20030;-75
2022/01/12 13:44:19;;;;;;;14.40;12.02;;;2.10;99.90;;;;;;5682361;23;20053;-74
2022/01/12 13:47:35;;;;;;;14.68;13.02;;;2.00;99.90;;;;;;4978935;28;20033;-76
2022/01/12 13:49:33;;;;;;;14.18;12.88;;;2.10;99.90;;;;;;4971966;28;20074;-76
2022/01/12 13:52:02;;;;;;;15.70;12.73;;;2.10;99.90;;;;;;4975952;28;20022;-76
2022/01/12 13:54:34;;;;;;;14.02;12.55;;;2.20;99.90;;;;;;4975500;28;20160;-76
2022/01/12 13:57:00;;;;;;;14.55;13.10;;;2.30;99.90;;;;;;4988352;28;20479;-76
2022/01/12 13:59:28;;;;;;;14.18;12.73;;;2.20;99.90;;;;;;5006519;28;20017;-77
2022/01/12 14:01:56;;;;;;;15.57;13.13;;;2.20;99.90;;;;;;4984474;28;20387;-76
2022/01/12 14:04:33;;;;;;;14.38;12.93;;;2.30;99.90;;;;;;5004342;28;20241;-77
2022/01/12 14:07:02;;;;;;;14.32;12.95;;;2.30;99.90;;;;;;4997011;28;20030;-76
2022/01/12 14:09:33;;;;;;;13.73;12.38;;;2.30;99.90;;;;;;5004625;28;20014;-76